<?xml version="1.0" encoding="UTF-8" standalone="no" ?><gpx xmlns="http://www.topografix.com/GPX/1/1" xmlns:gpxx="http://www.garmin.com/xmlschemas/GpxExtensions/v3" xmlns:gpxtrkx="http://www.garmin.com/xmlschemas/TrackStatsExtension/v1" xmlns:wptx1="http://www.garmin.com/xmlschemas/WaypointExtension/v1" xmlns:gpxtpx="http://www.garmin.com/xmlschemas/TrackPointExtension/v1" creator="Oregon 700" version="1.1" xmlns:xsi="http://www.w3.org/2001/XMLSchema-instance" xsi:schemaLocation="http://www.topografix.com/GPX/1/1 http://www.topografix.com/GPX/1/1/gpx.xsd http://www.garmin.com/xmlschemas/GpxExtensions/v3 http://www8.garmin.com/xmlschemas/GpxExtensionsv3.xsd http://www.garmin.com/xmlschemas/TrackStatsExtension/v1 http://www8.garmin.com/xmlschemas/TrackStatsExtension.xsd http://www.garmin.com/xmlschemas/WaypointExtension/v1 http://www8.garmin.com/xmlschemas/WaypointExtensionv1.xsd http://www.garmin.com/xmlschemas/TrackPointExtension/v1 http://www.garmin.com/xmlschemas/TrackPointExtensionv1.xsd"><metadata><link href="http://www.garmin.com"><text>Garmin International</text></link><time>2023-09-13T18:17:07Z</time></metadata><trk><name>Current Track: 13 SEP 2023 10:05</name><extensions><gpxx:TrackExtension><gpxx:DisplayColor>Cyan</gpxx:DisplayColor></gpxx:TrackExtension><gpxtrkx:TrackStatsExtension><gpxtrkx:Distance>4312.000</gpxtrkx:Distance><gpxtrkx:TimerTime>8724</gpxtrkx:TimerTime><gpxtrkx:TotalElapsedTime>33095</gpxtrkx:TotalElapsedTime><gpxtrkx:MovingTime>7016</gpxtrkx:MovingTime><gpxtrkx:StoppedTime>1709</gpxtrkx:StoppedTime><gpxtrkx:MovingSpeed>0.615</gpxtrkx:MovingSpeed><gpxtrkx:MaxSpeed>1.268</gpxtrkx:MaxSpeed><gpxtrkx:MaxElevation>0.000</gpxtrkx:MaxElevation><gpxtrkx:MinElevation>-71.448</gpxtrkx:MinElevation><gpxtrkx:Ascent>113.000</gpxtrkx:Ascent><gpxtrkx:Descent>113.361</gpxtrkx:Descent><gpxtrkx:AvgAscentRate>0.045</gpxtrkx:AvgAscentRate><gpxtrkx:MaxAscentRate>0.121</gpxtrkx:MaxAscentRate><gpxtrkx:AvgDescentRate>0.055</gpxtrkx:AvgDescentRate><gpxtrkx:MaxDescentRate>-0.187</gpxtrkx:MaxDescentRate><gpxtrkx:Calories>201</gpxtrkx:Calories></gpxtrkx:TrackStatsExtension></extensions><trkseg><trkpt lat="51.7640313227" lon="-2.1874845307"><ele>-28.60</ele><time>2023-09-13T09:05:32Z</time></trkpt><trkpt lat="51.7641344201" lon="-2.1872858796"><ele>-28.71</ele><time>2023-09-13T09:05:53Z</time></trkpt><trkpt lat="51.7642081808" lon="-2.1871971153"><ele>-27.65</ele><time>2023-09-13T09:06:13Z</time></trkpt><trkpt lat="51.7643251084" lon="-2.1870490909"><ele>-28.13</ele><time>2023-09-13T09:06:31Z</time></trkpt><trkpt lat="51.7643528525" lon="-2.1869548783"><ele>-27.74</ele><time>2023-09-13T09:06:54Z</time></trkpt><trkpt lat="51.7643669341" lon="-2.1869185846"><ele>-27.89</ele><time>2023-09-13T09:07:20Z</time></trkpt><trkpt lat="51.7644270323" lon="-2.1867977176"><ele>-28.02</ele><time>2023-09-13T09:07:43Z</time></trkpt><trkpt lat="51.7644939199" lon="-2.1866434906"><ele>-27.56</ele><time>2023-09-13T09:08:05Z</time></trkpt><trkpt lat="51.7645732127" lon="-2.1864481084"><ele>-27.27</ele><time>2023-09-13T09:08:27Z</time></trkpt><trkpt lat="51.7646832671" lon="-2.1862956416"><ele>-27.46</ele><time>2023-09-13T09:08:48Z</time></trkpt><trkpt lat="51.7647797428" lon="-2.1860720124"><ele>-27.29</ele><time>2023-09-13T09:09:10Z</time></trkpt><trkpt lat="51.7648681719" lon="-2.1859363094"><ele>-27.29</ele><time>2023-09-13T09:09:31Z</time></trkpt><trkpt lat="51.7649567686" lon="-2.1858840063"><ele>-27.29</ele><time>2023-09-13T09:09:53Z</time></trkpt><trkpt lat="51.7651342135" lon="-2.1857897937"><ele>-27.29</ele><time>2023-09-13T09:10:15Z</time></trkpt><trkpt lat="51.7652833275" lon="-2.1857029572"><ele>-27.29</ele><time>2023-09-13T09:10:34Z</time></trkpt><trkpt lat="51.7654377222" lon="-2.1855941601"><ele>-27.29</ele><time>2023-09-13T09:10:55Z</time></trkpt><trkpt lat="51.7655486148" lon="-2.1855273563"><ele>-27.28</ele><time>2023-09-13T09:11:16Z</time></trkpt><trkpt lat="51.7656945437" lon="-2.1854532603"><ele>-27.28</ele><time>2023-09-13T09:11:37Z</time></trkpt><trkpt lat="51.7658670433" lon="-2.1853202395"><ele>-27.28</ele><time>2023-09-13T09:12:01Z</time></trkpt><trkpt lat="51.7660340946" lon="-2.1851927508"><ele>-27.28</ele><time>2023-09-13T09:12:23Z</time></trkpt><trkpt lat="51.7660808656" lon="-2.1851771604"><ele>-27.28</ele><time>2023-09-13T09:12:29Z</time></trkpt><trkpt lat="51.7661516927" lon="-2.1851487458"><ele>-27.28</ele><time>2023-09-13T09:12:40Z</time></trkpt><trkpt lat="51.7663390283" lon="-2.1851379331"><ele>-27.28</ele><time>2023-09-13T09:13:04Z</time></trkpt><trkpt lat="51.7663438059" lon="-2.1851386037"><ele>-23.51</ele><time>2023-09-13T09:13:05Z</time></trkpt><trkpt lat="51.7663501762" lon="-2.1851393580"><ele>-23.49</ele><time>2023-09-13T09:13:06Z</time></trkpt><trkpt lat="51.7664587218" lon="-2.1851002146"><ele>-22.49</ele><time>2023-09-13T09:13:26Z</time></trkpt><trkpt lat="51.7664744798" lon="-2.1850496717"><ele>-22.77</ele><time>2023-09-13T09:13:50Z</time></trkpt><trkpt lat="51.7664967757" lon="-2.1850489173"><ele>-22.76</ele><time>2023-09-13T09:14:21Z</time></trkpt><trkpt lat="51.7665135395" lon="-2.1850651782"><ele>-22.72</ele><time>2023-09-13T09:14:48Z</time></trkpt><trkpt lat="51.7665774096" lon="-2.1850148030"><ele>-22.58</ele><time>2023-09-13T09:15:10Z</time></trkpt><trkpt lat="51.7666987795" lon="-2.1849147230"><ele>-22.58</ele><time>2023-09-13T09:15:31Z</time></trkpt><trkpt lat="51.7667846940" lon="-2.1848387830"><ele>-22.58</ele><time>2023-09-13T09:15:51Z</time></trkpt><trkpt lat="51.7668965925" lon="-2.1847537067"><ele>-22.58</ele><time>2023-09-13T09:16:13Z</time></trkpt><trkpt lat="51.7670019530" lon="-2.1846935246"><ele>-22.58</ele><time>2023-09-13T09:16:34Z</time></trkpt><trkpt lat="51.7670763005" lon="-2.1846695524"><ele>-22.58</ele><time>2023-09-13T09:16:52Z</time></trkpt><trkpt lat="51.7671669926" lon="-2.1846199315"><ele>-25.40</ele><time>2023-09-13T09:17:10Z</time></trkpt><trkpt lat="51.7672093213" lon="-2.1846312471"><ele>-25.46</ele><time>2023-09-13T09:17:23Z</time></trkpt><trkpt lat="51.7672112491" lon="-2.1845782734"><ele>-25.99</ele><time>2023-09-13T09:17:42Z</time></trkpt><trkpt lat="51.7672536615" lon="-2.1845734119"><ele>-26.49</ele><time>2023-09-13T09:18:05Z</time></trkpt><trkpt lat="51.7673416715" lon="-2.1845647786"><ele>-26.71</ele><time>2023-09-13T09:18:25Z</time></trkpt><trkpt lat="51.7674591020" lon="-2.1845365316"><ele>-26.89</ele><time>2023-09-13T09:18:47Z</time></trkpt><trkpt lat="51.7676136643" lon="-2.1845028363"><ele>-26.69</ele><time>2023-09-13T09:19:12Z</time></trkpt><trkpt lat="51.7677181866" lon="-2.1844999027"><ele>-26.69</ele><time>2023-09-13T09:19:34Z</time></trkpt><trkpt lat="51.7678038497" lon="-2.1844773553"><ele>-26.69</ele><time>2023-09-13T09:19:56Z</time></trkpt><trkpt lat="51.7679683026" lon="-2.1844903473"><ele>-26.69</ele><time>2023-09-13T09:20:18Z</time></trkpt><trkpt lat="51.7680262215" lon="-2.1845124755"><ele>-26.69</ele><time>2023-09-13T09:20:44Z</time></trkpt><trkpt lat="51.7680897564" lon="-2.1845373698"><ele>-26.69</ele><time>2023-09-13T09:21:11Z</time></trkpt><trkpt lat="51.7681909259" lon="-2.1845580731"><ele>-26.69</ele><time>2023-09-13T09:21:30Z</time></trkpt><trkpt lat="51.7682248726" lon="-2.1845476795"><ele>-26.69</ele><time>2023-09-13T09:21:58Z</time></trkpt><trkpt lat="51.7682863958" lon="-2.1846162435"><ele>-26.70</ele><time>2023-09-13T09:22:20Z</time></trkpt><trkpt lat="51.7684551235" lon="-2.1844912693"><ele>-26.69</ele><time>2023-09-13T09:22:40Z</time></trkpt><trkpt lat="51.7684875615" lon="-2.1843673848"><ele>-26.69</ele><time>2023-09-13T09:23:05Z</time></trkpt><trkpt lat="51.7684795149" lon="-2.1842853259"><ele>-26.69</ele><time>2023-09-13T09:23:11Z</time></trkpt><trkpt lat="51.7684802692" lon="-2.1842472721"><ele>-22.36</ele><time>2023-09-13T09:23:15Z</time></trkpt><trkpt lat="51.7684821971" lon="-2.1842310950"><ele>-22.80</ele><time>2023-09-13T09:23:16Z</time></trkpt><trkpt lat="51.7685143836" lon="-2.1840048674"><ele>-24.53</ele><time>2023-09-13T09:23:39Z</time></trkpt><trkpt lat="51.7684997991" lon="-2.1838381514"><ele>-25.76</ele><time>2023-09-13T09:24:02Z</time></trkpt><trkpt lat="51.7684655171" lon="-2.1836943179"><ele>-26.94</ele><time>2023-09-13T09:24:18Z</time></trkpt><trkpt lat="51.7684405390" lon="-2.1835637279"><ele>-28.36</ele><time>2023-09-13T09:24:34Z</time></trkpt><trkpt lat="51.7684130464" lon="-2.1834535059"><ele>-30.02</ele><time>2023-09-13T09:24:53Z</time></trkpt><trkpt lat="51.7683335021" lon="-2.1831908170"><ele>-32.57</ele><time>2023-09-13T09:25:19Z</time></trkpt><trkpt lat="51.7682628427" lon="-2.1830117796"><ele>-34.60</ele><time>2023-09-13T09:25:45Z</time></trkpt><trkpt lat="51.7682677042" lon="-2.1828571334"><ele>-35.54</ele><time>2023-09-13T09:26:09Z</time></trkpt><trkpt lat="51.7682452407" lon="-2.1825438179"><ele>-37.12</ele><time>2023-09-13T09:26:34Z</time></trkpt><trkpt lat="51.7682700511" lon="-2.1823461726"><ele>-38.43</ele><time>2023-09-13T09:26:57Z</time></trkpt><trkpt lat="51.7682925984" lon="-2.1820931230"><ele>-39.86</ele><time>2023-09-13T09:27:24Z</time></trkpt><trkpt lat="51.7682914250" lon="-2.1816980839"><ele>-41.85</ele><time>2023-09-13T09:27:55Z</time></trkpt><trkpt lat="51.7683142237" lon="-2.1815150231"><ele>-43.90</ele><time>2023-09-13T09:28:17Z</time></trkpt><trkpt lat="51.7683419678" lon="-2.1812455449"><ele>-46.05</ele><time>2023-09-13T09:28:43Z</time></trkpt><trkpt lat="51.7682898324" lon="-2.1809903998"><ele>-47.89</ele><time>2023-09-13T09:29:10Z</time></trkpt><trkpt lat="51.7681956198" lon="-2.1808408666"><ele>-49.42</ele><time>2023-09-13T09:29:35Z</time></trkpt><trkpt lat="51.7681576498" lon="-2.1807892341"><ele>-49.88</ele><time>2023-09-13T09:29:58Z</time></trkpt><trkpt lat="51.7680978868" lon="-2.1805659402"><ele>-50.56</ele><time>2023-09-13T09:30:21Z</time></trkpt><trkpt lat="51.7680986412" lon="-2.1802273951"><ele>-50.95</ele><time>2023-09-13T09:30:48Z</time></trkpt><trkpt lat="51.7680924386" lon="-2.1801211126"><ele>-51.59</ele><time>2023-09-13T09:31:15Z</time></trkpt><trkpt lat="51.7680661194" lon="-2.1801105514"><ele>-51.77</ele><time>2023-09-13T09:31:44Z</time></trkpt><trkpt lat="51.7680400517" lon="-2.1800594218"><ele>-51.91</ele><time>2023-09-13T09:32:08Z</time></trkpt><trkpt lat="51.7679784447" lon="-2.1800499503"><ele>-52.09</ele><time>2023-09-13T09:32:34Z</time></trkpt><trkpt lat="51.7678755987" lon="-2.1799391415"><ele>-52.09</ele><time>2023-09-13T09:32:56Z</time></trkpt><trkpt lat="51.7678317614" lon="-2.1799093019"><ele>-52.09</ele><time>2023-09-13T09:33:19Z</time></trkpt><trkpt lat="51.7678217869" lon="-2.1798730921"><ele>-52.09</ele><time>2023-09-13T09:33:45Z</time></trkpt><trkpt lat="51.7677752674" lon="-2.1798382234"><ele>-52.09</ele><time>2023-09-13T09:34:10Z</time></trkpt><trkpt lat="51.7677341122" lon="-2.1797792148"><ele>-52.09</ele><time>2023-09-13T09:34:29Z</time></trkpt><trkpt lat="51.7676454317" lon="-2.1797075495"><ele>-52.09</ele><time>2023-09-13T09:34:51Z</time></trkpt><trkpt lat="51.7675042804" lon="-2.1795603633"><ele>-52.09</ele><time>2023-09-13T09:35:19Z</time></trkpt><trkpt lat="51.7674991675" lon="-2.1795602795"><ele>-47.10</ele><time>2023-09-13T09:35:27Z</time></trkpt><trkpt lat="51.7674992513" lon="-2.1795586869"><ele>-47.09</ele><time>2023-09-13T09:35:28Z</time></trkpt><trkpt lat="51.7674088944" lon="-2.1794737782"><ele>-45.41</ele><time>2023-09-13T09:35:58Z</time></trkpt><trkpt lat="51.7673068028" lon="-2.1794052143"><ele>-43.47</ele><time>2023-09-13T09:36:21Z</time></trkpt><trkpt lat="51.7672293540" lon="-2.1793268435"><ele>-42.48</ele><time>2023-09-13T09:36:43Z</time></trkpt><trkpt lat="51.7672236543" lon="-2.1793052182"><ele>-41.76</ele><time>2023-09-13T09:37:05Z</time></trkpt><trkpt lat="51.7671687528" lon="-2.1792762168"><ele>-41.41</ele><time>2023-09-13T09:37:30Z</time></trkpt><trkpt lat="51.7670958303" lon="-2.1792182978"><ele>-38.33</ele><time>2023-09-13T09:37:53Z</time></trkpt><trkpt lat="51.7670379952" lon="-2.1791741252"><ele>-37.08</ele><time>2023-09-13T09:38:19Z</time></trkpt><trkpt lat="51.7668963410" lon="-2.1791011188"><ele>-34.33</ele><time>2023-09-13T09:38:43Z</time></trkpt><trkpt lat="51.7668333929" lon="-2.1790727042"><ele>-33.58</ele><time>2023-09-13T09:39:02Z</time></trkpt><trkpt lat="51.7667751387" lon="-2.1790173836"><ele>-32.08</ele><time>2023-09-13T09:39:27Z</time></trkpt><trkpt lat="51.7667437065" lon="-2.1789829340"><ele>-32.07</ele><time>2023-09-13T09:39:55Z</time></trkpt><trkpt lat="51.7666952591" lon="-2.1789837722"><ele>-31.78</ele><time>2023-09-13T09:40:22Z</time></trkpt><trkpt lat="51.7667147890" lon="-2.1790303756"><ele>-31.41</ele><time>2023-09-13T09:40:43Z</time></trkpt><trkpt lat="51.7666579597" lon="-2.1790814213"><ele>-30.11</ele><time>2023-09-13T09:41:15Z</time></trkpt><trkpt lat="51.7665979452" lon="-2.1791315451"><ele>-28.43</ele><time>2023-09-13T09:41:34Z</time></trkpt><trkpt lat="51.7665410321" lon="-2.1791711077"><ele>-26.69</ele><time>2023-09-13T09:41:56Z</time></trkpt><trkpt lat="51.7664686125" lon="-2.1791945770"><ele>-24.45</ele><time>2023-09-13T09:42:22Z</time></trkpt><trkpt lat="51.7664438020" lon="-2.1791640669"><ele>-23.24</ele><time>2023-09-13T09:42:46Z</time></trkpt><trkpt lat="51.7664523516" lon="-2.1792026237"><ele>-23.00</ele><time>2023-09-13T09:43:13Z</time></trkpt><trkpt lat="51.7664375994" lon="-2.1791913919"><ele>-22.97</ele><time>2023-09-13T09:43:36Z</time></trkpt><trkpt lat="51.7664368451" lon="-2.1791841835"><ele>-22.97</ele><time>2023-09-13T09:44:01Z</time></trkpt><trkpt lat="51.7664935067" lon="-2.1791242529"><ele>-22.97</ele><time>2023-09-13T09:44:19Z</time></trkpt><trkpt lat="51.7665066663" lon="-2.1790848579"><ele>-20.37</ele><time>2023-09-13T09:44:38Z</time></trkpt><trkpt lat="51.7665361706" lon="-2.1789836884"><ele>-19.69</ele><time>2023-09-13T09:45:05Z</time></trkpt><trkpt lat="51.7666027229" lon="-2.1787676029"><ele>-18.02</ele><time>2023-09-13T09:45:33Z</time></trkpt><trkpt lat="51.7666745558" lon="-2.1785183251"><ele>-15.80</ele><time>2023-09-13T09:45:59Z</time></trkpt><trkpt lat="51.7667394318" lon="-2.1782373637"><ele>-13.82</ele><time>2023-09-13T09:46:27Z</time></trkpt><trkpt lat="51.7667386774" lon="-2.1782224439"><ele>-13.80</ele><time>2023-09-13T09:46:28Z</time></trkpt><trkpt lat="51.7667636555" lon="-2.1780432388"><ele>-13.10</ele><time>2023-09-13T09:46:53Z</time></trkpt><trkpt lat="51.7668053973" lon="-2.1778963879"><ele>-12.35</ele><time>2023-09-13T09:47:16Z</time></trkpt><trkpt lat="51.7668314651" lon="-2.1777537279"><ele>-11.83</ele><time>2023-09-13T09:47:40Z</time></trkpt><trkpt lat="51.7668260168" lon="-2.1777928714"><ele>-11.89</ele><time>2023-09-13T09:48:04Z</time></trkpt><trkpt lat="51.7668227479" lon="-2.1777901053"><ele>-12.07</ele><time>2023-09-13T09:48:33Z</time></trkpt><trkpt lat="51.7668241728" lon="-2.1778584179"><ele>-12.07</ele><time>2023-09-13T09:48:55Z</time></trkpt><trkpt lat="51.7668141145" lon="-2.1779311728"><ele>-12.07</ele><time>2023-09-13T09:49:20Z</time></trkpt><trkpt lat="51.7667563632" lon="-2.1781490184"><ele>-12.07</ele><time>2023-09-13T09:49:39Z</time></trkpt><trkpt lat="51.7667342350" lon="-2.1782408841"><ele>-12.07</ele><time>2023-09-13T09:50:01Z</time></trkpt><trkpt lat="51.7667274456" lon="-2.1783390362"><ele>-12.07</ele><time>2023-09-13T09:50:23Z</time></trkpt><trkpt lat="51.7667059880" lon="-2.1784225199"><ele>-14.99</ele><time>2023-09-13T09:50:44Z</time></trkpt><trkpt lat="51.7666628212" lon="-2.1785767470"><ele>-16.28</ele><time>2023-09-13T09:51:19Z</time></trkpt><trkpt lat="51.7666272819" lon="-2.1786883101"><ele>-17.20</ele><time>2023-09-13T09:51:44Z</time></trkpt><trkpt lat="51.7665956821" lon="-2.1787856240"><ele>-17.83</ele><time>2023-09-13T09:52:07Z</time></trkpt><trkpt lat="51.7665676866" lon="-2.1788938344"><ele>-18.47</ele><time>2023-09-13T09:52:26Z</time></trkpt><trkpt lat="51.7665439658" lon="-2.1789842751"><ele>-19.81</ele><time>2023-09-13T09:52:51Z</time></trkpt><trkpt lat="51.7665340751" lon="-2.1789845265"><ele>-20.44</ele><time>2023-09-13T09:53:12Z</time></trkpt><trkpt lat="51.7665132042" lon="-2.1790168807"><ele>-21.15</ele><time>2023-09-13T09:53:37Z</time></trkpt><trkpt lat="51.7665344104" lon="-2.1789532620"><ele>-21.84</ele><time>2023-09-13T09:53:57Z</time></trkpt><trkpt lat="51.7665293813" lon="-2.1789765637"><ele>-22.16</ele><time>2023-09-13T09:54:20Z</time></trkpt><trkpt lat="51.7664712947" lon="-2.1790433675"><ele>-22.86</ele><time>2023-09-13T09:54:46Z</time></trkpt><trkpt lat="51.7664523516" lon="-2.1790730394"><ele>-22.86</ele><time>2023-09-13T09:54:47Z</time></trkpt><trkpt lat="51.7663321551" lon="-2.1791918948"><ele>-22.67</ele><time>2023-09-13T09:55:10Z</time></trkpt><trkpt lat="51.7662388645" lon="-2.1791702695"><ele>-21.22</ele><time>2023-09-13T09:55:35Z</time></trkpt><trkpt lat="51.7661962844" lon="-2.1791586187"><ele>-21.19</ele><time>2023-09-13T09:56:01Z</time></trkpt><trkpt lat="51.7661961168" lon="-2.1791354846"><ele>-21.23</ele><time>2023-09-13T09:56:27Z</time></trkpt><trkpt lat="51.7662075162" lon="-2.1791086625"><ele>-20.98</ele><time>2023-09-13T09:56:51Z</time></trkpt><trkpt lat="51.7661977932" lon="-2.1791269351"><ele>-20.98</ele><time>2023-09-13T09:57:13Z</time></trkpt><trkpt lat="51.7662130482" lon="-2.1791224089"><ele>-20.98</ele><time>2023-09-13T09:57:40Z</time></trkpt><trkpt lat="51.7662582267" lon="-2.1790705249"><ele>-20.98</ele><time>2023-09-13T09:58:08Z</time></trkpt><trkpt lat="51.7662504315" lon="-2.1790364943"><ele>-20.98</ele><time>2023-09-13T09:58:33Z</time></trkpt><trkpt lat="51.7662141379" lon="-2.1791040525"><ele>-20.98</ele><time>2023-09-13T09:59:02Z</time></trkpt><trkpt lat="51.7662235256" lon="-2.1790654119"><ele>-20.98</ele><time>2023-09-13T09:59:28Z</time></trkpt><trkpt lat="51.7662261240" lon="-2.1790727880"><ele>-20.98</ele><time>2023-09-13T09:59:51Z</time></trkpt><trkpt lat="51.7662335001" lon="-2.1790493187"><ele>-20.98</ele><time>2023-09-13T10:00:16Z</time></trkpt><trkpt lat="51.7662376072" lon="-2.1790098399"><ele>-20.98</ele><time>2023-09-13T10:00:40Z</time></trkpt><trkpt lat="51.7661566380" lon="-2.1791627258"><ele>-20.98</ele><time>2023-09-13T10:00:58Z</time></trkpt><trkpt lat="51.7662034929" lon="-2.1790991910"><ele>-20.98</ele><time>2023-09-13T10:01:21Z</time></trkpt><trkpt lat="51.7662008945" lon="-2.1791049745"><ele>-20.98</ele><time>2023-09-13T10:01:41Z</time></trkpt><trkpt lat="51.7661945242" lon="-2.1791383345"><ele>-20.98</ele><time>2023-09-13T10:02:05Z</time></trkpt><trkpt lat="51.7661889084" lon="-2.1791545954"><ele>-20.98</ele><time>2023-09-13T10:02:30Z</time></trkpt><trkpt lat="51.7661935184" lon="-2.1791463811"><ele>-20.98</ele><time>2023-09-13T10:02:53Z</time></trkpt><trkpt lat="51.7661806941" lon="-2.1791884582"><ele>-20.98</ele><time>2023-09-13T10:03:18Z</time></trkpt><trkpt lat="51.7661946081" lon="-2.1791599598"><ele>-20.98</ele><time>2023-09-13T10:03:44Z</time></trkpt><trkpt lat="51.7661879864" lon="-2.1791288629"><ele>-20.98</ele><time>2023-09-13T10:04:06Z</time></trkpt><trkpt lat="51.7661999725" lon="-2.1791321319"><ele>-20.98</ele><time>2023-09-13T10:04:31Z</time></trkpt><trkpt lat="51.7661897466" lon="-2.1791401785"><ele>-20.98</ele><time>2023-09-13T10:04:57Z</time></trkpt><trkpt lat="51.7661975417" lon="-2.1791599598"><ele>-20.98</ele><time>2023-09-13T10:05:25Z</time></trkpt><trkpt lat="51.7662244476" lon="-2.1791334730"><ele>-20.98</ele><time>2023-09-13T10:05:53Z</time></trkpt><trkpt lat="51.7662072647" lon="-2.1791369934"><ele>-20.98</ele><time>2023-09-13T10:06:20Z</time></trkpt><trkpt lat="51.7662114557" lon="-2.1791090816"><ele>-20.98</ele><time>2023-09-13T10:06:47Z</time></trkpt><trkpt lat="51.7662309855" lon="-2.1791012026"><ele>-20.98</ele><time>2023-09-13T10:07:15Z</time></trkpt><trkpt lat="51.7662302312" lon="-2.1791272704"><ele>-20.98</ele><time>2023-09-13T10:07:42Z</time></trkpt><trkpt lat="51.7662303988" lon="-2.1791559365"><ele>-20.98</ele><time>2023-09-13T10:08:06Z</time></trkpt><trkpt lat="51.7662353441" lon="-2.1791466326"><ele>-20.98</ele><time>2023-09-13T10:08:32Z</time></trkpt><trkpt lat="51.7662785947" lon="-2.1791275218"><ele>-20.98</ele><time>2023-09-13T10:09:03Z</time></trkpt><trkpt lat="51.7662272975" lon="-2.1791129373"><ele>-20.98</ele><time>2023-09-13T10:09:29Z</time></trkpt><trkpt lat="51.7662088573" lon="-2.1791444533"><ele>-20.98</ele><time>2023-09-13T10:09:59Z</time></trkpt><trkpt lat="51.7662117910" lon="-2.1791729517"><ele>-20.98</ele><time>2023-09-13T10:10:28Z</time></trkpt><trkpt lat="51.7662422173" lon="-2.1791571938"><ele>-20.98</ele><time>2023-09-13T10:10:52Z</time></trkpt><trkpt lat="51.7662105337" lon="-2.1791916434"><ele>-20.98</ele><time>2023-09-13T10:11:17Z</time></trkpt><trkpt lat="51.7662017327" lon="-2.1792067308"><ele>-20.98</ele><time>2023-09-13T10:11:38Z</time></trkpt><trkpt lat="51.7662241962" lon="-2.1791662462"><ele>-20.98</ele><time>2023-09-13T10:12:02Z</time></trkpt><trkpt lat="51.7662437260" lon="-2.1791508235"><ele>-20.98</ele><time>2023-09-13T10:12:31Z</time></trkpt><trkpt lat="51.7662634235" lon="-2.1791454591"><ele>-20.98</ele><time>2023-09-13T10:13:00Z</time></trkpt><trkpt lat="51.7662160657" lon="-2.1791579481"><ele>-20.98</ele><time>2023-09-13T10:13:25Z</time></trkpt><trkpt lat="51.7661913391" lon="-2.1791471355"><ele>-20.98</ele><time>2023-09-13T10:13:55Z</time></trkpt><trkpt lat="51.7661947757" lon="-2.1791566908"><ele>-20.98</ele><time>2023-09-13T10:14:18Z</time></trkpt><trkpt lat="51.7662428040" lon="-2.1791198105"><ele>-20.98</ele><time>2023-09-13T10:14:43Z</time></trkpt><trkpt lat="51.7662539519" lon="-2.1791257616"><ele>-20.98</ele><time>2023-09-13T10:15:04Z</time></trkpt><trkpt lat="51.7662240285" lon="-2.1791423578"><ele>-20.98</ele><time>2023-09-13T10:15:26Z</time></trkpt><trkpt lat="51.7662565503" lon="-2.1791457944"><ele>-20.98</ele><time>2023-09-13T10:15:48Z</time></trkpt><trkpt lat="51.7661081068" lon="-2.1790771466"><ele>-20.98</ele><time>2023-09-13T10:16:13Z</time></trkpt><trkpt lat="51.7659781873" lon="-2.1790291183"><ele>-19.94</ele><time>2023-09-13T10:16:29Z</time></trkpt><trkpt lat="51.7659237050" lon="-2.1790038049"><ele>-19.80</ele><time>2023-09-13T10:16:35Z</time></trkpt><trkpt lat="51.7658368684" lon="-2.1789821796"><ele>-19.51</ele><time>2023-09-13T10:16:52Z</time></trkpt><trkpt lat="51.7656091321" lon="-2.1788664255"><ele>-19.98</ele><time>2023-09-13T10:17:16Z</time></trkpt><trkpt lat="51.7653911188" lon="-2.1787843667"><ele>-20.41</ele><time>2023-09-13T10:17:39Z</time></trkpt><trkpt lat="51.7653176095" lon="-2.1787608974"><ele>-20.50</ele><time>2023-09-13T10:17:55Z</time></trkpt><trkpt lat="51.7652801424" lon="-2.1787356678"><ele>-20.81</ele><time>2023-09-13T10:18:12Z</time></trkpt><trkpt lat="51.7651886120" lon="-2.1786735579"><ele>-20.79</ele><time>2023-09-13T10:18:29Z</time></trkpt><trkpt lat="51.7650713492" lon="-2.1786029823"><ele>-21.03</ele><time>2023-09-13T10:18:49Z</time></trkpt><trkpt lat="51.7649591994" lon="-2.1785267070"><ele>-21.60</ele><time>2023-09-13T10:19:14Z</time></trkpt><trkpt lat="51.7648167070" lon="-2.1785357594"><ele>-22.63</ele><time>2023-09-13T10:19:37Z</time></trkpt><trkpt lat="51.7646556068" lon="-2.1785840392"><ele>-23.86</ele><time>2023-09-13T10:20:01Z</time></trkpt><trkpt lat="51.7645017151" lon="-2.1786828618"><ele>-24.85</ele><time>2023-09-13T10:20:29Z</time></trkpt><trkpt lat="51.7643489130" lon="-2.1788232587"><ele>-24.47</ele><time>2023-09-13T10:20:57Z</time></trkpt><trkpt lat="51.7642189935" lon="-2.1789219975"><ele>-23.58</ele><time>2023-09-13T10:21:21Z</time></trkpt><trkpt lat="51.7640742380" lon="-2.1790426131"><ele>-22.74</ele><time>2023-09-13T10:21:44Z</time></trkpt><trkpt lat="51.7639615014" lon="-2.1791226603"><ele>-22.60</ele><time>2023-09-13T10:22:03Z</time></trkpt><trkpt lat="51.7639113776" lon="-2.1791789029"><ele>-22.30</ele><time>2023-09-13T10:22:20Z</time></trkpt><trkpt lat="51.7639138084" lon="-2.1791139431"><ele>-22.47</ele><time>2023-09-13T10:22:41Z</time></trkpt><trkpt lat="51.7638297379" lon="-2.1792036295"><ele>-22.44</ele><time>2023-09-13T10:23:02Z</time></trkpt><trkpt lat="51.7637100443" lon="-2.1793281008"><ele>-22.44</ele><time>2023-09-13T10:23:25Z</time></trkpt><trkpt lat="51.7636095453" lon="-2.1793392487"><ele>-22.44</ele><time>2023-09-13T10:23:46Z</time></trkpt><trkpt lat="51.7635150813" lon="-2.1794023644"><ele>-22.44</ele><time>2023-09-13T10:24:09Z</time></trkpt><trkpt lat="51.7633844074" lon="-2.1795343794"><ele>-22.44</ele><time>2023-09-13T10:24:32Z</time></trkpt><trkpt lat="51.7632944696" lon="-2.1795712598"><ele>-22.44</ele><time>2023-09-13T10:24:56Z</time></trkpt><trkpt lat="51.7631114088" lon="-2.1797066275"><ele>-22.44</ele><time>2023-09-13T10:25:21Z</time></trkpt><trkpt lat="51.7629869375" lon="-2.1797782090"><ele>-22.44</ele><time>2023-09-13T10:25:40Z</time></trkpt><trkpt lat="51.7629094888" lon="-2.1797890216"><ele>-19.91</ele><time>2023-09-13T10:25:54Z</time></trkpt><trkpt lat="51.7628249992" lon="-2.1796952281"><ele>-19.70</ele><time>2023-09-13T10:26:16Z</time></trkpt><trkpt lat="51.7627622187" lon="-2.1794653125"><ele>-19.65</ele><time>2023-09-13T10:26:42Z</time></trkpt><trkpt lat="51.7627462093" lon="-2.1793314535"><ele>-18.64</ele><time>2023-09-13T10:27:03Z</time></trkpt><trkpt lat="51.7627125978" lon="-2.1792776417"><ele>-18.07</ele><time>2023-09-13T10:27:28Z</time></trkpt><trkpt lat="51.7626814172" lon="-2.1792817488"><ele>-18.10</ele><time>2023-09-13T10:27:55Z</time></trkpt><trkpt lat="51.7626752984" lon="-2.1792274341"><ele>-17.93</ele><time>2023-09-13T10:28:23Z</time></trkpt><trkpt lat="51.7626807466" lon="-2.1791835967"><ele>-17.60</ele><time>2023-09-13T10:28:50Z</time></trkpt><trkpt lat="51.7626520805" lon="-2.1791363228"><ele>-18.24</ele><time>2023-09-13T10:28:56Z</time></trkpt><trkpt lat="51.7625855282" lon="-2.1789717022"><ele>-20.56</ele><time>2023-09-13T10:29:24Z</time></trkpt><trkpt lat="51.7625394277" lon="-2.1788689401"><ele>-21.92</ele><time>2023-09-13T10:29:48Z</time></trkpt><trkpt lat="51.7623953428" lon="-2.1787305549"><ele>-23.48</ele><time>2023-09-13T10:30:12Z</time></trkpt><trkpt lat="51.7622397747" lon="-2.1787250228"><ele>-26.61</ele><time>2023-09-13T10:30:28Z</time></trkpt><trkpt lat="51.7621987872" lon="-2.1786282118"><ele>-29.10</ele><time>2023-09-13T10:30:46Z</time></trkpt><trkpt lat="51.7621235177" lon="-2.1786690317"><ele>-30.79</ele><time>2023-09-13T10:31:10Z</time></trkpt><trkpt lat="51.7620681133" lon="-2.1787490789"><ele>-31.33</ele><time>2023-09-13T10:31:36Z</time></trkpt><trkpt lat="51.7620292213" lon="-2.1787228435"><ele>-31.58</ele><time>2023-09-13T10:32:02Z</time></trkpt><trkpt lat="51.7620314006" lon="-2.1787213348"><ele>-31.44</ele><time>2023-09-13T10:32:33Z</time></trkpt><trkpt lat="51.7620513495" lon="-2.1786928363"><ele>-31.42</ele><time>2023-09-13T10:32:59Z</time></trkpt><trkpt lat="51.7620483320" lon="-2.1787047386"><ele>-31.59</ele><time>2023-09-13T10:33:23Z</time></trkpt><trkpt lat="51.7620933428" lon="-2.1786961891"><ele>-31.59</ele><time>2023-09-13T10:33:47Z</time></trkpt><trkpt lat="51.7620467395" lon="-2.1787321474"><ele>-31.59</ele><time>2023-09-13T10:34:16Z</time></trkpt><trkpt lat="51.7620479129" lon="-2.1787877195"><ele>-31.59</ele><time>2023-09-13T10:34:46Z</time></trkpt><trkpt lat="51.7620507628" lon="-2.1787826065"><ele>-31.63</ele><time>2023-09-13T10:35:14Z</time></trkpt><trkpt lat="51.7620559596" lon="-2.1789010428"><ele>-32.48</ele><time>2023-09-13T10:35:37Z</time></trkpt><trkpt lat="51.7621034011" lon="-2.1791444533"><ele>-33.89</ele><time>2023-09-13T10:35:55Z</time></trkpt><trkpt lat="51.7621271219" lon="-2.1793903783"><ele>-35.00</ele><time>2023-09-13T10:36:17Z</time></trkpt><trkpt lat="51.7621399462" lon="-2.1796470322"><ele>-35.63</ele><time>2023-09-13T10:36:41Z</time></trkpt><trkpt lat="51.7621384375" lon="-2.1799092181"><ele>-36.80</ele><time>2023-09-13T10:37:05Z</time></trkpt><trkpt lat="51.7621310614" lon="-2.1801336017"><ele>-38.04</ele><time>2023-09-13T10:37:31Z</time></trkpt><trkpt lat="51.7621215899" lon="-2.1802911814"><ele>-38.78</ele><time>2023-09-13T10:37:52Z</time></trkpt><trkpt lat="51.7621107772" lon="-2.1804971248"><ele>-40.08</ele><time>2023-09-13T10:38:14Z</time></trkpt><trkpt lat="51.7621003836" lon="-2.1805884875"><ele>-41.05</ele><time>2023-09-13T10:38:35Z</time></trkpt><trkpt lat="51.7620946001" lon="-2.1807581373"><ele>-41.70</ele><time>2023-09-13T10:39:00Z</time></trkpt><trkpt lat="51.7620736454" lon="-2.1809742227"><ele>-42.51</ele><time>2023-09-13T10:39:20Z</time></trkpt><trkpt lat="51.7620560434" lon="-2.1810816787"><ele>-43.88</ele><time>2023-09-13T10:39:38Z</time></trkpt><trkpt lat="51.7620284669" lon="-2.1811333951"><ele>-44.83</ele><time>2023-09-13T10:40:03Z</time></trkpt><trkpt lat="51.7620274611" lon="-2.1811868716"><ele>-45.23</ele><time>2023-09-13T10:40:27Z</time></trkpt><trkpt lat="51.7620547861" lon="-2.1811955050"><ele>-45.44</ele><time>2023-09-13T10:40:52Z</time></trkpt><trkpt lat="51.7620027345" lon="-2.1812092513"><ele>-45.41</ele><time>2023-09-13T10:41:17Z</time></trkpt><trkpt lat="51.7619120423" lon="-2.1813025419"><ele>-45.41</ele><time>2023-09-13T10:41:42Z</time></trkpt><trkpt lat="51.7619205918" lon="-2.1813794877"><ele>-45.41</ele><time>2023-09-13T10:42:09Z</time></trkpt><trkpt lat="51.7619328294" lon="-2.1814172901"><ele>-45.41</ele><time>2023-09-13T10:42:31Z</time></trkpt><trkpt lat="51.7618738208" lon="-2.1813809127"><ele>-45.41</ele><time>2023-09-13T10:43:01Z</time></trkpt><trkpt lat="51.7618414667" lon="-2.1813542582"><ele>-45.41</ele><time>2023-09-13T10:43:27Z</time></trkpt><trkpt lat="51.7618491780" lon="-2.1813387517"><ele>-45.41</ele><time>2023-09-13T10:43:42Z</time></trkpt><trkpt lat="51.7618682049" lon="-2.1813661605"><ele>-45.41</ele><time>2023-09-13T10:44:05Z</time></trkpt><trkpt lat="51.7618604936" lon="-2.1813540068"><ele>-45.41</ele><time>2023-09-13T10:44:34Z</time></trkpt><trkpt lat="51.7618381139" lon="-2.1813813318"><ele>-45.41</ele><time>2023-09-13T10:45:00Z</time></trkpt><trkpt lat="51.7617759202" lon="-2.1814981755"><ele>-45.41</ele><time>2023-09-13T10:45:24Z</time></trkpt><trkpt lat="51.7617116310" lon="-2.1817311924"><ele>-45.41</ele><time>2023-09-13T10:45:47Z</time></trkpt><trkpt lat="51.7616444919" lon="-2.1819986589"><ele>-45.41</ele><time>2023-09-13T10:46:14Z</time></trkpt><trkpt lat="51.7616371997" lon="-2.1820186079"><ele>-41.13</ele><time>2023-09-13T10:46:16Z</time></trkpt><trkpt lat="51.7616338469" lon="-2.1820273250"><ele>-41.09</ele><time>2023-09-13T10:46:17Z</time></trkpt><trkpt lat="51.7615619302" lon="-2.1822657064"><ele>-39.82</ele><time>2023-09-13T10:46:44Z</time></trkpt><trkpt lat="51.7615656182" lon="-2.1822719090"><ele>-39.28</ele><time>2023-09-13T10:47:15Z</time></trkpt><trkpt lat="51.7615709826" lon="-2.1823487710"><ele>-39.32</ele><time>2023-09-13T10:47:56Z</time></trkpt><trkpt lat="51.7615398020" lon="-2.1824641898"><ele>-39.46</ele><time>2023-09-13T10:48:03Z</time></trkpt><trkpt lat="51.7614224553" lon="-2.1827779245"><ele>-39.33</ele><time>2023-09-13T10:48:25Z</time></trkpt><trkpt lat="51.7613281589" lon="-2.1830119472"><ele>-39.09</ele><time>2023-09-13T10:48:43Z</time></trkpt><trkpt lat="51.7612345330" lon="-2.1832856163"><ele>-38.45</ele><time>2023-09-13T10:49:01Z</time></trkpt><trkpt lat="51.7611241434" lon="-2.1836396679"><ele>-38.28</ele><time>2023-09-13T10:49:24Z</time></trkpt><trkpt lat="51.7610848323" lon="-2.1837024484"><ele>-37.95</ele><time>2023-09-13T10:49:38Z</time></trkpt><trkpt lat="51.7610542383" lon="-2.1837783884"><ele>-38.01</ele><time>2023-09-13T10:50:00Z</time></trkpt><trkpt lat="51.7609968223" lon="-2.1839126665"><ele>-37.89</ele><time>2023-09-13T10:50:20Z</time></trkpt><trkpt lat="51.7609995045" lon="-2.1839305200"><ele>-37.97</ele><time>2023-09-13T10:50:47Z</time></trkpt><trkpt lat="51.7609714251" lon="-2.1839379799"><ele>-37.97</ele><time>2023-09-13T10:51:03Z</time></trkpt><trkpt lat="51.7609690782" lon="-2.1839724295"><ele>-37.97</ele><time>2023-09-13T10:51:28Z</time></trkpt><trkpt lat="51.7609571759" lon="-2.1839459427"><ele>-37.97</ele><time>2023-09-13T10:51:50Z</time></trkpt><trkpt lat="51.7609477881" lon="-2.1839597728"><ele>-37.97</ele><time>2023-09-13T10:52:14Z</time></trkpt><trkpt lat="51.7609313596" lon="-2.1840010956"><ele>-37.97</ele><time>2023-09-13T10:52:32Z</time></trkpt><trkpt lat="51.7608946469" lon="-2.1840021014"><ele>-37.97</ele><time>2023-09-13T10:52:53Z</time></trkpt><trkpt lat="51.7608401645" lon="-2.1840767004"><ele>-37.97</ele><time>2023-09-13T10:53:12Z</time></trkpt><trkpt lat="51.7607485503" lon="-2.1841768641"><ele>-37.97</ele><time>2023-09-13T10:53:35Z</time></trkpt><trkpt lat="51.7607091554" lon="-2.1842160076"><ele>-42.93</ele><time>2023-09-13T10:53:44Z</time></trkpt><trkpt lat="51.7607036233" lon="-2.1842199471"><ele>-43.00</ele><time>2023-09-13T10:53:45Z</time></trkpt><trkpt lat="51.7605830077" lon="-2.1843277384"><ele>-43.93</ele><time>2023-09-13T10:54:06Z</time></trkpt><trkpt lat="51.7604592070" lon="-2.1844400559"><ele>-44.29</ele><time>2023-09-13T10:54:27Z</time></trkpt><trkpt lat="51.7603097577" lon="-2.1845511999"><ele>-45.27</ele><time>2023-09-13T10:54:50Z</time></trkpt><trkpt lat="51.7601662595" lon="-2.1846896689"><ele>-46.32</ele><time>2023-09-13T10:55:14Z</time></trkpt><trkpt lat="51.7600315623" lon="-2.1848282218"><ele>-46.68</ele><time>2023-09-13T10:55:35Z</time></trkpt><trkpt lat="51.7598930094" lon="-2.1849650145"><ele>-46.95</ele><time>2023-09-13T10:55:58Z</time></trkpt><trkpt lat="51.7597621679" lon="-2.1850891504"><ele>-47.71</ele><time>2023-09-13T10:56:21Z</time></trkpt><trkpt lat="51.7596475873" lon="-2.1852408629"><ele>-48.21</ele><time>2023-09-13T10:56:41Z</time></trkpt><trkpt lat="51.7595167458" lon="-2.1853876300"><ele>-48.70</ele><time>2023-09-13T10:57:03Z</time></trkpt><trkpt lat="51.7593769357" lon="-2.1855226625"><ele>-48.45</ele><time>2023-09-13T10:57:24Z</time></trkpt><trkpt lat="51.7592683900" lon="-2.1856185514"><ele>-48.05</ele><time>2023-09-13T10:57:45Z</time></trkpt><trkpt lat="51.7591805477" lon="-2.1856462955"><ele>-48.03</ele><time>2023-09-13T10:58:05Z</time></trkpt><trkpt lat="51.7591397278" lon="-2.1856734529"><ele>-48.03</ele><time>2023-09-13T10:58:27Z</time></trkpt><trkpt lat="51.7591211200" lon="-2.1857843455"><ele>-48.03</ele><time>2023-09-13T10:58:52Z</time></trkpt><trkpt lat="51.7590357922" lon="-2.1858221479"><ele>-48.03</ele><time>2023-09-13T10:59:12Z</time></trkpt><trkpt lat="51.7588839959" lon="-2.1859590244"><ele>-48.03</ele><time>2023-09-13T10:59:36Z</time></trkpt><trkpt lat="51.7588149291" lon="-2.1860397421"><ele>-51.85</ele><time>2023-09-13T10:59:50Z</time></trkpt><trkpt lat="51.7586692516" lon="-2.1861715894"><ele>-50.25</ele><time>2023-09-13T11:00:09Z</time></trkpt><trkpt lat="51.7584641464" lon="-2.1862978209"><ele>-50.31</ele><time>2023-09-13T11:00:36Z</time></trkpt><trkpt lat="51.7584400065" lon="-2.1863589250"><ele>-50.84</ele><time>2023-09-13T11:01:00Z</time></trkpt><trkpt lat="51.7583565228" lon="-2.1864489466"><ele>-50.84</ele><time>2023-09-13T11:01:24Z</time></trkpt><trkpt lat="51.7582780682" lon="-2.1865092125"><ele>-53.32</ele><time>2023-09-13T11:01:40Z</time></trkpt><trkpt lat="51.7582377512" lon="-2.1865741722"><ele>-54.48</ele><time>2023-09-13T11:02:04Z</time></trkpt><trkpt lat="51.7582178023" lon="-2.1865864936"><ele>-55.20</ele><time>2023-09-13T11:02:23Z</time></trkpt><trkpt lat="51.7582226638" lon="-2.1865110565"><ele>-55.51</ele><time>2023-09-13T11:02:41Z</time></trkpt><trkpt lat="51.7582285311" lon="-2.1865061950"><ele>-54.88</ele><time>2023-09-13T11:03:03Z</time></trkpt><trkpt lat="51.7581662536" lon="-2.1867553890"><ele>-57.21</ele><time>2023-09-13T11:03:24Z</time></trkpt><trkpt lat="51.7581582069" lon="-2.1867937781"><ele>-57.82</ele><time>2023-09-13T11:03:43Z</time></trkpt><trkpt lat="51.7581900582" lon="-2.1869207639"><ele>-58.57</ele><time>2023-09-13T11:04:02Z</time></trkpt><trkpt lat="51.7582696863" lon="-2.1870447323"><ele>-59.51</ele><time>2023-09-13T11:04:20Z</time></trkpt><trkpt lat="51.7583958339" lon="-2.1870535333"><ele>-61.10</ele><time>2023-09-13T11:04:41Z</time></trkpt><trkpt lat="51.7584372405" lon="-2.1869768389"><ele>-62.23</ele><time>2023-09-13T11:05:03Z</time></trkpt><trkpt lat="51.7584519088" lon="-2.1868931036"><ele>-62.63</ele><time>2023-09-13T11:05:24Z</time></trkpt><trkpt lat="51.7585275136" lon="-2.1869057603"><ele>-63.53</ele><time>2023-09-13T11:05:44Z</time></trkpt><trkpt lat="51.7586395796" lon="-2.1869603265"><ele>-64.28</ele><time>2023-09-13T11:06:08Z</time></trkpt><trkpt lat="51.7586822435" lon="-2.1869834606"><ele>-64.64</ele><time>2023-09-13T11:06:12Z</time></trkpt><trkpt lat="51.7587298527" lon="-2.1870330814"><ele>-65.87</ele><time>2023-09-13T11:06:27Z</time></trkpt><trkpt lat="51.7587510590" lon="-2.1872480772"><ele>-67.64</ele><time>2023-09-13T11:06:52Z</time></trkpt><trkpt lat="51.7587433476" lon="-2.1873223409"><ele>-69.10</ele><time>2023-09-13T11:07:17Z</time></trkpt><trkpt lat="51.7587453593" lon="-2.1874034777"><ele>-69.65</ele><time>2023-09-13T11:07:38Z</time></trkpt><trkpt lat="51.7587356362" lon="-2.1875742171"><ele>-70.81</ele><time>2023-09-13T11:08:00Z</time></trkpt><trkpt lat="51.7587430961" lon="-2.1878517419"><ele>-71.41</ele><time>2023-09-13T11:08:21Z</time></trkpt><trkpt lat="51.7587449402" lon="-2.1880371496"><ele>-71.51</ele><time>2023-09-13T11:08:41Z</time></trkpt><trkpt lat="51.7587743606" lon="-2.1881684102"><ele>-71.07</ele><time>2023-09-13T11:08:59Z</time></trkpt><trkpt lat="51.7587767914" lon="-2.1883591823"><ele>-69.73</ele><time>2023-09-13T11:09:24Z</time></trkpt><trkpt lat="51.7588005960" lon="-2.1885197796"><ele>-69.37</ele><time>2023-09-13T11:09:43Z</time></trkpt><trkpt lat="51.7588255741" lon="-2.1886180993"><ele>-68.50</ele><time>2023-09-13T11:10:05Z</time></trkpt><trkpt lat="51.7588254064" lon="-2.1886537224"><ele>-67.68</ele><time>2023-09-13T11:10:29Z</time></trkpt><trkpt lat="51.7589151766" lon="-2.1887610946"><ele>-66.18</ele><time>2023-09-13T11:10:52Z</time></trkpt><trkpt lat="51.7589401547" lon="-2.1888486855"><ele>-64.44</ele><time>2023-09-13T11:11:16Z</time></trkpt><trkpt lat="51.7590094730" lon="-2.1889830474"><ele>-62.77</ele><time>2023-09-13T11:11:38Z</time></trkpt><trkpt lat="51.7590852454" lon="-2.1890284773"><ele>-61.19</ele><time>2023-09-13T11:12:02Z</time></trkpt><trkpt lat="51.7591577489" lon="-2.1889729891"><ele>-59.24</ele><time>2023-09-13T11:12:23Z</time></trkpt><trkpt lat="51.7591684777" lon="-2.1889403835"><ele>-57.86</ele><time>2023-09-13T11:12:44Z</time></trkpt><trkpt lat="51.7591755185" lon="-2.1889371146"><ele>-57.84</ele><time>2023-09-13T11:12:47Z</time></trkpt><trkpt lat="51.7592569068" lon="-2.1889327560"><ele>-57.84</ele><time>2023-09-13T11:13:12Z</time></trkpt><trkpt lat="51.7593310867" lon="-2.1889718994"><ele>-55.85</ele><time>2023-09-13T11:13:34Z</time></trkpt><trkpt lat="51.7593582440" lon="-2.1888937801"><ele>-55.17</ele><time>2023-09-13T11:14:08Z</time></trkpt><trkpt lat="51.7593596689" lon="-2.1887907665"><ele>-53.56</ele><time>2023-09-13T11:14:43Z</time></trkpt><trkpt lat="51.7594030034" lon="-2.1887420677"><ele>-52.30</ele><time>2023-09-13T11:15:02Z</time></trkpt><trkpt lat="51.7594522890" lon="-2.1887129825"><ele>-51.91</ele><time>2023-09-13T11:15:16Z</time></trkpt><trkpt lat="51.7594764289" lon="-2.1886831429"><ele>-51.70</ele><time>2023-09-13T11:15:39Z</time></trkpt><trkpt lat="51.7595320009" lon="-2.1887007449"><ele>-51.67</ele><time>2023-09-13T11:16:04Z</time></trkpt><trkpt lat="51.7595128063" lon="-2.1886089630"><ele>-51.60</ele><time>2023-09-13T11:16:28Z</time></trkpt><trkpt lat="51.7595894169" lon="-2.1884693205"><ele>-50.50</ele><time>2023-09-13T11:16:44Z</time></trkpt><trkpt lat="51.7598184105" lon="-2.1881697513"><ele>-48.51</ele><time>2023-09-13T11:17:12Z</time></trkpt><trkpt lat="51.7598961107" lon="-2.1881354693"><ele>-48.03</ele><time>2023-09-13T11:17:19Z</time></trkpt><trkpt lat="51.7600716278" lon="-2.1880241577"><ele>-47.05</ele><time>2023-09-13T11:17:39Z</time></trkpt><trkpt lat="51.7602475639" lon="-2.1879083198"><ele>-46.41</ele><time>2023-09-13T11:18:02Z</time></trkpt><trkpt lat="51.7603744660" lon="-2.1877998579"><ele>-45.02</ele><time>2023-09-13T11:18:24Z</time></trkpt><trkpt lat="51.7604619730" lon="-2.1877160389"><ele>-43.65</ele><time>2023-09-13T11:18:47Z</time></trkpt><trkpt lat="51.7604699358" lon="-2.1876855288"><ele>-43.67</ele><time>2023-09-13T11:19:10Z</time></trkpt><trkpt lat="51.7605027929" lon="-2.1876772307"><ele>-44.71</ele><time>2023-09-13T11:19:37Z</time></trkpt><trkpt lat="51.7604592070" lon="-2.1876887977"><ele>-44.26</ele><time>2023-09-13T11:20:17Z</time></trkpt><trkpt lat="51.7606185470" lon="-2.1876226645"><ele>-43.45</ele><time>2023-09-13T11:20:34Z</time></trkpt><trkpt lat="51.7607109156" lon="-2.1875763964"><ele>-43.32</ele><time>2023-09-13T11:20:41Z</time></trkpt><trkpt lat="51.7609394901" lon="-2.1874865424"><ele>-42.17</ele><time>2023-09-13T11:21:02Z</time></trkpt><trkpt lat="51.7611083854" lon="-2.1875352412"><ele>-41.74</ele><time>2023-09-13T11:21:18Z</time></trkpt><trkpt lat="51.7613304220" lon="-2.1876736265"><ele>-41.06</ele><time>2023-09-13T11:21:42Z</time></trkpt><trkpt lat="51.7615465075" lon="-2.1877763886"><ele>-39.87</ele><time>2023-09-13T11:22:04Z</time></trkpt><trkpt lat="51.7617332563" lon="-2.1878959984"><ele>-38.93</ele><time>2023-09-13T11:22:23Z</time></trkpt><trkpt lat="51.7618471663" lon="-2.1879545879"><ele>-37.76</ele><time>2023-09-13T11:22:40Z</time></trkpt><trkpt lat="51.7619037442" lon="-2.1880017780"><ele>-36.99</ele><time>2023-09-13T11:22:58Z</time></trkpt><trkpt lat="51.7619919218" lon="-2.1879830863"><ele>-36.36</ele><time>2023-09-13T11:23:11Z</time></trkpt><trkpt lat="51.7620948516" lon="-2.1879926417"><ele>-35.94</ele><time>2023-09-13T11:23:32Z</time></trkpt><trkpt lat="51.7621291336" lon="-2.1879719384"><ele>-35.82</ele><time>2023-09-13T11:23:49Z</time></trkpt><trkpt lat="51.7622053251" lon="-2.1880156919"><ele>-35.41</ele><time>2023-09-13T11:24:09Z</time></trkpt><trkpt lat="51.7623318918" lon="-2.1880306955"><ele>-34.18</ele><time>2023-09-13T11:24:24Z</time></trkpt><trkpt lat="51.7624577880" lon="-2.1881292667"><ele>-32.87</ele><time>2023-09-13T11:24:46Z</time></trkpt><trkpt lat="51.7624960933" lon="-2.1881570108"><ele>-32.69</ele><time>2023-09-13T11:24:51Z</time></trkpt><trkpt lat="51.7626215704" lon="-2.1882187854"><ele>-32.34</ele><time>2023-09-13T11:25:14Z</time></trkpt><trkpt lat="51.7627458740" lon="-2.1883479506"><ele>-32.10</ele><time>2023-09-13T11:25:36Z</time></trkpt><trkpt lat="51.7628315371" lon="-2.1883801371"><ele>-31.97</ele><time>2023-09-13T11:25:56Z</time></trkpt><trkpt lat="51.7629820760" lon="-2.1885850746"><ele>-32.03</ele><time>2023-09-13T11:26:22Z</time></trkpt><trkpt lat="51.7631178629" lon="-2.1887140721"><ele>-31.88</ele><time>2023-09-13T11:26:40Z</time></trkpt><trkpt lat="51.7632010113" lon="-2.1887651179"><ele>-31.73</ele><time>2023-09-13T11:27:00Z</time></trkpt><trkpt lat="51.7633564956" lon="-2.1888196841"><ele>-31.73</ele><time>2023-09-13T11:27:14Z</time></trkpt><trkpt lat="51.7634822242" lon="-2.1888558101"><ele>-31.73</ele><time>2023-09-13T11:27:32Z</time></trkpt><trkpt lat="51.7635729164" lon="-2.1888500266"><ele>-31.73</ele><time>2023-09-13T11:27:49Z</time></trkpt><trkpt lat="51.7637519538" lon="-2.1889003180"><ele>-31.73</ele><time>2023-09-13T11:28:10Z</time></trkpt><trkpt lat="51.7638672888" lon="-2.1887351945"><ele>-31.73</ele><time>2023-09-13T11:28:30Z</time></trkpt><trkpt lat="51.7638258822" lon="-2.1884219628"><ele>-31.73</ele><time>2023-09-13T11:28:52Z</time></trkpt><trkpt lat="51.7638387904" lon="-2.1881573461"><ele>-31.73</ele><time>2023-09-13T11:29:13Z</time></trkpt><trkpt lat="51.7638738267" lon="-2.1879039612"><ele>-31.73</ele><time>2023-09-13T11:29:34Z</time></trkpt><trkpt lat="51.7639388703" lon="-2.1878311224"><ele>-28.78</ele><time>2023-09-13T11:29:46Z</time></trkpt><trkpt lat="51.7640006449" lon="-2.1876885463"><ele>-28.98</ele><time>2023-09-13T11:30:05Z</time></trkpt><trkpt lat="51.7640414648" lon="-2.1875913162"><ele>-29.02</ele><time>2023-09-13T11:30:19Z</time></trkpt><trkpt lat="51.7640599050" lon="-2.1875855327"><ele>-29.47</ele><time>2023-09-13T11:30:37Z</time></trkpt><trkpt lat="51.7640540376" lon="-2.1875755582"><ele>-28.84</ele><time>2023-09-13T11:30:58Z</time></trkpt></trkseg></trk></gpx>